TimeEST,TemperatureF,Dew PointF,Humidity,Sea Level PressureIn,VisibilityMPH,Wind Direction,Wind SpeedMPH,Gust SpeedMPH,PrecipitationIn,Events,Conditions,WindDirDegrees,DateUTC
12:52 AM,32.0,19.9,61,30.31,10.0,West,6.9,-,N/A,,Partly Cloudy,280,2013-01-15 05:52:00
1:52 AM,30.9,21.0,67,30.29,10.0,WNW,3.5,-,N/A,,Clear,290,2013-01-15 06:52:00
2:52 AM,30.9,21.0,67,30.27,10.0,Calm,Calm,-,N/A,,Partly Cloudy,0,2013-01-15 07:52:00
3:52 AM,30.0,21.0,69,30.27,10.0,Calm,Calm,-,N/A,,Clear,0,2013-01-15 08:52:00
4:52 AM,28.9,19.9,69,30.25,10.0,Calm,Calm,-,N/A,,Clear,0,2013-01-15 09:52:00
6:52 AM,26.1,19.9,78,30.31,10.0,Calm,Calm,-,N/A,,Mostly Cloudy,0,2013-01-15 11:52:00
7:52 AM,26.1,21.0,81,30.33,10.0,Calm,Calm,-,N/A,,Overcast,0,2013-01-15 12:52:00
8:52 AM,28.9,21.9,75,30.35,10.0,Calm,Calm,-,N/A,,Overcast,0,2013-01-15 13:52:00
9:52 AM,30.9,21.9,69,30.37,10.0,Calm,Calm,-,N/A,,Overcast,0,2013-01-15 14:52:00
10:52 AM,33.1,21.0,61,30.34,10.0,Calm,Calm,-,N/A,,Overcast,0,2013-01-15 15:52:00
11:52 AM,34.0,18.0,52,30.32,10.0,Variable,3.5,-,N/A,,Overcast,0,2013-01-15 16:52:00
12:52 PM,35.1,19.0,52,30.30,10.0,NW,3.5,-,N/A,,Overcast,310,2013-01-15 17:52:00
1:52 PM,34.0,19.0,54,30.29,10.0,Variable,3.5,-,N/A,,Overcast,0,2013-01-15 18:52:00
2:52 PM,34.0,19.0,54,30.26,10.0,Calm,Calm,-,N/A,,Overcast,0,2013-01-15 19:52:00
3:52 PM,33.1,19.0,56,30.29,10.0,Calm,Calm,-,N/A,,Overcast,0,2013-01-15 20:52:00
4:52 PM,32.0,19.0,59,30.30,10.0,West,3.5,-,N/A,,Partly Cloudy,280,2013-01-15 21:52:00
5:52 PM,30.0,19.9,66,30.32,10.0,West,3.5,-,N/A,,Clear,270,2013-01-15 22:52:00
6:52 PM,30.0,17.1,59,30.31,10.0,West,3.5,-,N/A,,Clear,280,2013-01-15 23:52:00
7:52 PM,28.9,19.9,69,30.30,10.0,Calm,Calm,-,N/A,,Clear,0,2013-01-16 00:52:00
8:52 PM,28.9,19.0,67,30.29,10.0,WSW,3.5,-,N/A,,Clear,250,2013-01-16 01:52:00
9:52 PM,28.9,19.0,67,30.26,10.0,Calm,Calm,-,N/A,,Clear,0,2013-01-16 02:52:00
10:52 PM,28.9,21.0,72,30.26,10.0,Calm,Calm,-,N/A,,Clear,0,2013-01-16 03:52:00
11:52 PM,28.9,21.0,72,30.24,10.0,Calm,Calm,-,N/A,,Clear,0,2013-01-16 04:52:00